createdAt,value
2022-09-28T00:01:25.598Z,38920.97
2022-09-28T00:03:58.261Z,38956.84
2022-09-28T00:06:29.123Z,38944.88
2022-09-28T00:08:57.649Z,38964.81
2022-09-28T00:11:28.160Z,39010.69
2022-09-28T00:13:57.871Z,39008.69
2022-09-28T00:16:29.358Z,39044.56
2022-09-28T00:18:56.772Z,39074.47
2022-09-28T00:21:26.948Z,39068.50
2022-09-28T00:24:12.646Z,39080.47
2022-09-28T00:26:41.434Z,39102.41
2022-09-28T00:29:19.696Z,39128.31
2022-09-28T00:31:48.558Z,39134.31
2022-09-28T00:34:16.470Z,39164.22
2022-09-28T00:36:46.030Z,39182.16
2022-09-28T00:39:15.585Z,39178.16
2022-09-28T00:41:44.559Z,39200.09
2022-09-28T00:44:24.443Z,39216.03
2022-09-28T00:46:58.481Z,39214.06
2022-09-28T00:49:33.457Z,39235.97
2022-09-28T00:52:06.470Z,39239.97
2022-09-28T00:54:35.154Z,39287.81
2022-09-28T00:57:03.823Z,39249.94
2022-09-28T00:59:33.773Z,39253.94
2022-09-28T01:02:02.826Z,39295.81
2022-09-28T01:04:31.655Z,39323.72
2022-09-28T01:07:00.215Z,39387.53
2022-09-28T01:09:27.861Z,39455.31
2022-09-28T01:11:55.686Z,39505.16
2022-09-28T01:14:25.868Z,39628.81
2022-09-28T01:17:15.955Z,39666.69
2022-09-28T01:20:08.354Z,39750.44
2022-09-28T01:23:15.320Z,39790.34
2022-09-28T01:25:51.566Z,39846.16
2022-09-28T01:28:23.794Z,39908.00
2022-09-28T01:31:13.760Z,39977.78
2022-09-28T01:33:56.641Z,40103.44
2022-09-28T01:36:46.455Z,40065.53
2022-09-28T01:39:25.232Z,40302.88
2022-09-28T01:41:56.990Z,40388.66
2022-09-28T01:44:28.623Z,40476.41
2022-09-28T01:47:03.635Z,40520.28
2022-09-28T01:49:43.559Z,40546.22
2022-09-28T01:52:20.913Z,40584.13
2022-09-28T01:55:21.860Z,40612.06
2022-09-28T01:57:58.308Z,40799.56
2022-09-28T02:00:26.955Z,40809.53
2022-09-28T02:03:12.488Z,40843.44
2022-09-28T02:05:55.163Z,40927.22
2022-09-28T02:08:33.449Z,40923.25
2022-09-28T02:11:21.110Z,40991.06
2022-09-28T02:14:01.144Z,41182.59
2022-09-28T02:16:28.747Z,41124.72
2022-09-28T02:18:56.170Z,41120.75
2022-09-28T02:21:29.598Z,41266.38
2022-09-28T02:24:06.240Z,41318.25
2022-09-28T02:26:40.259Z,41370.13
2022-09-28T02:29:08.328Z,41402.03
2022-09-28T02:31:36.218Z,41469.88
2022-09-28T02:34:04.072Z,41551.69
2022-09-28T02:36:33.378Z,41607.56
2022-09-28T02:39:02.353Z,41469.88
2022-09-28T02:41:52.042Z,41412.03
2022-09-28T02:44:31.689Z,41513.78
2022-09-28T02:47:05.203Z,41687.38
2022-09-28T02:49:57.315Z,41801.09
2022-09-28T02:52:49.118Z,42012.63
2022-09-28T02:55:46.286Z,42238.13
2022-09-28T02:58:32.212Z,42681.19
2022-09-28T03:01:19.107Z,43196.19
2022-09-28T03:03:55.612Z,43489.66
2022-09-28T03:06:41.535Z,43765.16
2022-09-28T03:09:37.364Z,44679.72
2022-09-28T03:12:13.808Z,45061.19
2022-09-28T03:14:41.466Z,44847.47
2022-09-28T03:17:08.883Z,44917.38
2022-09-28T03:19:37.179Z,45091.16
2022-09-28T03:22:05.677Z,45109.13
2022-09-28T03:24:34.109Z,44975.31
2022-09-28T03:27:02.537Z,44995.28
2022-09-28T03:29:31.413Z,44537.94
2022-09-28T03:32:02.224Z,44324.25
2022-09-28T03:34:31.924Z,44156.50
2022-09-28T03:36:59.455Z,43902.94
2022-09-28T03:39:26.922Z,43872.97
2022-09-28T03:42:44.074Z,43701.28
2022-09-28T03:45:11.652Z,43593.47
2022-09-28T03:47:39.054Z,43433.75
2022-09-28T03:50:06.922Z,43545.53
2022-09-28T03:52:34.271Z,43653.34
2022-09-28T03:55:01.518Z,43679.31
2022-09-28T03:57:29.001Z,43519.59
2022-09-28T03:59:56.273Z,43477.66
2022-09-28T04:02:24.339Z,43481.66
2022-09-28T04:04:51.993Z,43467.69
2022-09-28T04:07:20.572Z,43469.69
2022-09-28T04:09:48.033Z,43417.78
2022-09-28T04:12:15.505Z,43250.09
2022-09-28T04:14:42.828Z,43278.03
2022-09-28T04:17:10.194Z,43194.19
2022-09-28T04:19:38.170Z,43290.00
2022-09-28T04:22:41.200Z,43441.72
2022-09-28T04:25:09.324Z,43323.94
2022-09-28T04:27:56.570Z,43303.97
2022-09-28T04:30:24.832Z,43190.19
2022-09-28T04:32:53.113Z,43248.09
2022-09-28T04:35:20.842Z,43288.00
2022-09-28T04:37:48.431Z,44072.66
2022-09-28T04:40:15.980Z,44260.34
2022-09-28T04:42:43.854Z,44256.34
2022-09-28T04:45:11.294Z,44695.69
2022-09-28T04:47:43.280Z,44817.53
2022-09-28T04:50:23.764Z,44815.53
2022-09-28T04:53:11.349Z,45059.19
2022-09-28T04:55:39.718Z,44935.34
2022-09-28T04:58:07.112Z,44801.53
2022-09-28T05:00:35.163Z,45230.97
2022-09-28T05:03:22.856Z,45468.66
2022-09-28T05:06:09.209Z,45978.09
2022-09-28T05:08:46.983Z,46046.03
2022-09-28T05:11:15.304Z,45946.13
2022-09-28T05:13:45.815Z,46143.91
2022-09-28T05:16:17.029Z,46369.69
2022-09-28T05:19:03.516Z,46455.63
2022-09-28T05:21:31.161Z,46691.41
2022-09-28T05:24:00.806Z,46625.47
2022-09-28T05:26:28.327Z,46645.44
2022-09-28T05:28:56.916Z,46745.38
2022-09-28T05:31:42.865Z,47292.97
2022-09-28T05:34:22.244Z,46979.19
2022-09-28T05:36:49.820Z,46713.41
2022-09-28T05:39:18.853Z,46885.25
2022-09-28T05:41:46.545Z,47097.09
2022-09-28T05:44:14.504Z,47452.84
2022-09-28T05:46:45.242Z,48170.50
2022-09-28T05:49:15.489Z,48020.56
2022-09-28T05:51:47.578Z,48554.34
2022-09-28T05:54:15.229Z,48228.47
2022-09-28T05:56:46.568Z,47666.72
2022-09-28T05:59:14.170Z,47640.75
2022-09-28T06:01:42.337Z,48408.41
2022-09-28T06:04:11.769Z,48904.28
2022-09-28T06:06:42.203Z,49272.22
2022-09-28T06:09:10.186Z,49182.22
2022-09-28T06:12:07.148Z,50018.25
2022-09-28T06:14:44.808Z,49870.22
2022-09-28T06:17:14.912Z,49872.22
2022-09-28T06:19:45.407Z,49900.22
2022-09-28T06:22:15.606Z,50500.34
2022-09-28T06:24:49.374Z,50462.34
2022-09-28T06:27:21.536Z,50442.31
2022-09-28T06:29:49.498Z,50862.47
2022-09-28T06:32:16.922Z,50430.31
2022-09-28T06:34:52.754Z,50500.34
2022-09-28T06:37:26.043Z,50914.50
2022-09-28T06:39:54.816Z,50952.50
2022-09-28T06:42:23.403Z,50848.47
2022-09-28T06:45:11.125Z,50386.31
2022-09-28T06:47:59.051Z,51026.53
2022-09-28T06:50:39.031Z,51937.06
2022-09-28T06:53:15.072Z,52327.34
2022-09-28T06:55:53.785Z,52037.13
2022-09-28T06:58:27.274Z,51969.06
2022-09-28T07:01:00.947Z,52309.34
2022-09-28T07:03:31.284Z,53274.25
2022-09-28T07:06:24.166Z,55108.78
2022-09-28T07:09:35.031Z,56391.13
2022-09-28T07:12:42.108Z,57930.59
2022-09-28T07:15:29.434Z,57673.97
2022-09-28T07:18:03.455Z,57930.59
2022-09-28T07:20:38.462Z,58443.91
2022-09-28T07:23:18.900Z,58443.91
2022-09-28T07:26:26.322Z,58957.28
2022-09-28T07:28:56.395Z,58957.28
2022-09-28T07:31:46.275Z,59470.75
2022-09-28T07:34:39.976Z,60241.09
2022-09-28T07:37:13.491Z,60497.91
2022-09-28T07:40:04.859Z,60497.91
2022-09-28T07:42:34.874Z,60754.75
2022-09-28T07:45:07.005Z,60497.91
2022-09-28T07:47:35.356Z,60754.75
2022-09-28T07:50:15.531Z,61268.47
2022-09-28T07:52:57.678Z,61782.28
2022-09-28T07:55:30.101Z,62039.22
2022-09-28T07:58:14.856Z,61782.28
2022-09-28T08:01:11.250Z,62553.16
2022-09-28T08:03:44.355Z,62810.16
2022-09-28T08:06:14.516Z,62553.16
2022-09-28T08:08:45.349Z,61782.28
2022-09-28T08:11:17.762Z,61011.59
2022-09-28T08:14:06.649Z,60754.75
2022-09-28T08:17:07.475Z,59984.28
2022-09-28T08:19:59.903Z,59727.50
2022-09-28T08:22:27.913Z,62296.19
2022-09-28T08:24:58.132Z,63838.31
2022-09-28T08:27:25.686Z,64866.81
2022-09-28T08:29:57.545Z,65638.38
2022-09-28T08:32:50.305Z,66152.84
2022-09-28T08:35:39.031Z,66667.38
2022-09-28T08:38:15.980Z,66924.69
2022-09-28T08:41:13.984Z,66667.38
2022-09-28T08:44:10.210Z,66924.69
2022-09-28T08:47:33.466Z,67182.00
2022-09-28T08:50:29.021Z,67696.72
2022-09-28T08:53:36.071Z,67696.72
2022-09-28T08:56:32.282Z,67954.09
2022-09-28T08:59:09.609Z,67954.09
2022-09-28T09:01:40.638Z,67954.09
2022-09-28T09:04:14.006Z,68211.50
2022-09-28T09:07:11.712Z,68726.38
2022-09-28T09:09:43.189Z,68726.38
2022-09-28T09:12:24.390Z,68468.91
2022-09-28T09:15:13.144Z,68726.38
2022-09-28T09:17:50.378Z,69498.81
2022-09-28T09:20:44.916Z,69498.81
2022-09-28T09:23:28.701Z,69756.31
2022-09-28T09:26:10.083Z,69498.81
2022-09-28T09:29:04.689Z,69498.81
2022-09-28T09:32:03.753Z,69756.31
2022-09-28T09:34:46.090Z,69756.31
2022-09-28T09:38:04.291Z,70013.84
2022-09-28T09:44:11.720Z,69498.81
2022-09-28T09:47:13.539Z,69241.31
2022-09-28T09:50:12.498Z,68983.81
2022-09-28T09:53:23.683Z,69241.31
2022-09-28T09:55:57.350Z,69756.31
2022-09-28T09:58:47.402Z,70271.41
2022-09-28T10:01:33.738Z,70271.41
2022-09-28T10:04:26.029Z,70013.84
2022-09-28T10:07:13.337Z,69756.31
2022-09-28T10:09:45.983Z,69241.31
2022-09-28T10:12:33.409Z,68983.81
2022-09-28T10:15:07.638Z,68468.91
2022-09-28T10:17:56.717Z,67954.09
2022-09-28T10:20:59.830Z,68726.38
2022-09-28T10:23:58.832Z,69241.31
2022-09-28T10:26:35.674Z,69241.31
2022-09-28T10:29:15.991Z,69241.31
2022-09-28T10:31:43.440Z,69498.81
2022-09-28T10:34:29.697Z,70271.41
2022-09-28T10:37:10.516Z,73621.41
2022-09-28T10:39:57.426Z,75942.56
2022-09-28T10:42:31.729Z,79039.88
2022-09-28T10:45:23.389Z,86795.38
2022-09-28T10:47:51.453Z,95087.13
2022-09-28T10:50:25.777Z,98201.69
2022-09-28T10:53:25.051Z,98461.34
2022-09-28T10:56:27.010Z,96125.00
2022-09-28T10:59:01.671Z,95087.13
2022-09-28T11:01:45.457Z,93790.25
2022-09-28T11:04:22.129Z,91716.22
2022-09-28T11:06:51.486Z,89384.41
2022-09-28T11:09:34.724Z,86536.56
2022-09-28T11:12:22.020Z,84466.88
2022-09-28T11:14:56.341Z,82656.94
2022-09-28T11:17:41.677Z,80072.94
2022-09-28T11:20:30.647Z,77490.88
2022-09-28T11:23:06.842Z,75942.56
2022-09-28T11:25:34.421Z,74652.84
2022-09-28T11:28:06.122Z,73105.81
2022-09-28T11:30:51.949Z,72074.84
2022-09-28T11:33:41.255Z,70528.97
2022-09-28T11:37:10.239Z,69498.81
2022-09-28T11:40:20.503Z,68726.38
2022-09-28T11:43:08.413Z,67439.34
2022-09-28T11:45:59.334Z,65895.59
2022-09-28T11:48:54.416Z,65381.16
2022-09-28T11:51:27.633Z,64095.41
2022-09-28T11:54:01.519Z,62296.19
2022-09-28T11:56:47.935Z,61011.59
2022-09-28T11:59:27.553Z,61268.47
2022-09-28T12:02:01.035Z,60754.75
2022-09-28T12:04:55.391Z,59727.50
2022-09-28T12:07:35.228Z,58700.59
2022-09-28T12:10:32.599Z,57930.59
2022-09-28T12:13:06.335Z,58443.91
2022-09-28T12:18:55.344Z,51428.72
2022-09-28T12:21:43.878Z,48206.47
2022-09-28T12:24:26.667Z,46483.59
2022-09-28T12:26:59.357Z,45426.72
2022-09-28T12:29:47.764Z,44759.59
2022-09-28T12:32:28.818Z,43773.16
2022-09-28T12:34:57.012Z,43793.13
2022-09-28T12:37:54.675Z,43473.66
2022-09-28T12:40:36.606Z,42220.16
2022-09-28T12:43:33.488Z,42623.31
2022-09-28T12:46:12.670Z,44659.75
2022-09-28T12:49:51.552Z,45850.22
2022-09-28T12:51:55.211Z,46825.31
2022-09-28T12:54:41.357Z,47996.56
2022-09-28T12:57:30.011Z,48540.34
2022-09-28T13:00:08.928Z,50024.25
2022-09-28T13:02:58.192Z,50878.47
2022-09-28T13:05:36.845Z,52671.66
2022-09-28T13:08:18.835Z,54083.25
2022-09-28T13:10:49.196Z,54595.97
2022-09-28T13:13:37.410Z,55878.13
2022-09-28T13:16:26.877Z,56904.22
2022-09-28T13:19:03.790Z,58700.59
2022-09-28T13:21:51.504Z,59470.75
2022-09-28T13:24:32.874Z,60497.91
2022-09-28T13:27:24.733Z,61525.38
2022-09-28T13:29:55.729Z,62296.19
2022-09-28T13:32:30.016Z,63067.16
2022-09-28T13:35:02.555Z,63324.19
2022-09-28T13:37:30.299Z,47137.06
2022-09-28T13:40:00.087Z,40496.34
2022-09-28T13:42:43.020Z,40197.19
2022-09-28T13:45:25.234Z,42196.22
2022-09-28T13:47:59.768Z,43194.19
2022-09-28T13:50:48.425Z,44188.47
2022-09-28T13:53:25.869Z,44923.38
2022-09-28T13:56:18.157Z,42433.72
2022-09-28T13:59:08.113Z,41819.06
2022-09-28T14:01:55.936Z,42319.94
2022-09-28T14:04:47.644Z,43000.56
2022-09-28T14:08:09.669Z,43282.03
2022-09-28T14:10:53.591Z,44240.38
2022-09-28T14:13:43.067Z,44282.31
2022-09-28T14:16:23.844Z,44581.84
2022-09-28T14:19:12.418Z,45027.22
2022-09-28T14:22:01.253Z,45131.09
2022-09-28T14:24:31.519Z,42948.66
2022-09-28T14:27:33.866Z,41352.16
2022-09-28T14:30:13.720Z,41260.38
2022-09-28T14:32:48.368Z,41404.03
2022-09-28T14:35:19.017Z,42140.34
2022-09-28T14:38:10.371Z,42926.69
2022-09-28T14:41:13.773Z,42832.88
2022-09-28T14:43:46.041Z,42581.41
2022-09-28T14:46:14.987Z,43006.53
2022-09-28T14:48:54.036Z,43357.88
2022-09-28T14:51:27.444Z,44050.69
2022-09-28T14:54:19.830Z,44645.75
2022-09-28T14:56:53.934Z,45081.16
2022-09-28T14:59:36.004Z,45248.94
2022-09-28T15:02:13.866Z,45422.72
2022-09-28T15:04:51.671Z,46167.91
2022-09-28T15:07:23.021Z,46593.50
2022-09-28T15:09:55.397Z,47159.06
2022-09-28T15:12:28.977Z,48324.44
2022-09-28T15:15:08.714Z,48640.31
2022-09-28T15:17:42.063Z,49182.22
2022-09-28T15:20:33.343Z,49186.22
2022-09-28T15:23:03.530Z,54339.59
2022-09-28T15:25:32.743Z,62296.19
2022-09-28T15:28:18.021Z,61782.28
2022-09-28T15:30:45.793Z,60497.91
2022-09-28T15:33:50.087Z,62039.22
2022-09-28T15:36:28.803Z,61268.47
2022-09-28T15:39:16.990Z,56904.22
2022-09-28T15:41:46.242Z,55621.66
2022-09-28T15:44:14.740Z,56391.13
2022-09-28T15:46:57.064Z,57417.38
2022-09-28T15:49:41.175Z,56904.22
2022-09-28T15:52:29.037Z,56904.22
2022-09-28T15:54:57.557Z,57160.78
2022-09-28T15:57:40.593Z,57160.78
2022-09-28T16:00:27.210Z,56904.22
2022-09-28T16:03:06.287Z,56904.22
2022-09-28T16:05:43.532Z,57160.78
2022-09-28T16:08:24.766Z,57160.78
2022-09-28T16:10:54.207Z,57417.38
2022-09-28T16:13:23.161Z,57673.97
2022-09-28T16:15:59.840Z,57417.38
2022-09-28T16:18:30.630Z,57673.97
2022-09-28T16:21:29.141Z,57930.59
2022-09-28T16:23:57.595Z,58700.59
2022-09-28T16:26:32.241Z,58700.59
2022-09-28T16:29:00.386Z,58700.59
2022-09-28T16:31:33.813Z,57930.59
2022-09-28T16:34:11.707Z,58187.25
2022-09-28T16:36:51.193Z,57160.78
2022-09-28T16:39:21.987Z,57160.78
2022-09-28T16:41:56.163Z,56904.22
2022-09-28T16:44:30.210Z,56647.66
2022-09-28T16:47:00.690Z,56904.22
2022-09-28T16:49:42.371Z,56647.66
2022-09-28T16:52:12.366Z,56904.22
2022-09-28T16:55:00.942Z,56647.66
2022-09-28T16:57:32.561Z,56391.13
2022-09-28T17:00:05.591Z,56391.13
2022-09-28T17:02:46.415Z,56647.66
2022-09-28T17:05:17.838Z,55108.78
2022-09-28T17:07:46.678Z,54852.38
2022-09-28T17:10:26.026Z,54595.97
2022-09-28T17:12:57.789Z,55878.13
2022-09-28T17:15:27.349Z,57417.38
2022-09-28T17:17:55.667Z,58700.59
2022-09-28T17:20:29.767Z,58957.28
2022-09-28T17:23:00.024Z,59727.50
2022-09-28T17:25:28.593Z,59984.28
2022-09-28T17:28:02.944Z,59984.28
2022-09-28T17:30:31.708Z,60497.91
2022-09-28T17:33:01.578Z,60754.75
2022-09-28T17:35:29.088Z,61011.59
2022-09-28T17:37:58.849Z,61525.38
2022-09-28T17:40:29.410Z,61782.28
2022-09-28T17:42:57.695Z,62039.22
2022-09-28T17:45:28.197Z,66152.84
2022-09-28T17:47:56.281Z,66410.09
2022-09-28T17:50:29.975Z,64609.66
2022-09-28T17:52:59.851Z,63324.19
2022-09-28T17:55:31.529Z,62810.16
2022-09-28T17:58:01.259Z,62810.16
2022-09-28T18:00:29.077Z,62039.22
2022-09-28T18:02:58.102Z,61011.59
2022-09-28T18:05:30.388Z,59984.28
2022-09-28T18:07:58.837Z,58443.91
2022-09-28T18:10:27.577Z,57160.78
2022-09-28T18:12:55.075Z,55621.66
2022-09-28T18:15:22.923Z,54852.38
2022-09-28T18:17:50.427Z,53826.91
2022-09-28T18:20:18.228Z,52539.53
2022-09-28T18:22:46.086Z,50880.47
2022-09-28T18:25:16.091Z,50266.28
2022-09-28T18:27:43.556Z,50182.28
2022-09-28T18:30:11.605Z,54339.59
2022-09-28T18:32:41.450Z,60241.09
2022-09-28T18:35:12.102Z,64609.66
2022-09-28T18:37:40.408Z,67696.72
2022-09-28T18:40:09.532Z,69241.31
2022-09-28T18:42:37.204Z,70528.97
2022-09-28T18:45:06.303Z,71559.47
2022-09-28T18:47:34.931Z,72332.56
2022-09-28T18:50:02.504Z,73621.41
2022-09-28T18:52:29.976Z,74652.84
2022-09-28T18:54:59.938Z,75426.59
2022-09-28T18:57:27.357Z,76200.56
2022-09-28T18:59:57.615Z,77232.75
2022-09-28T19:02:27.335Z,78007.13
2022-09-28T19:04:54.913Z,79039.88
2022-09-28T19:07:23.262Z,79556.34
2022-09-28T19:09:53.379Z,79814.63
2022-09-28T19:12:21.086Z,80331.25
2022-09-28T19:14:48.699Z,80847.91
2022-09-28T19:17:16.018Z,81364.69
2022-09-28T19:19:45.945Z,81881.53
2022-09-28T19:22:13.382Z,82398.44
2022-09-28T19:24:40.882Z,82915.44
2022-09-28T19:27:08.313Z,83432.50
2022-09-28T19:29:38.932Z,83432.50
2022-09-28T19:32:10.875Z,83949.66
2022-09-28T19:34:39.318Z,84466.88
2022-09-28T19:37:07.878Z,84466.88
2022-09-28T19:39:35.340Z,84725.53
2022-09-28T19:42:03.966Z,84725.53
2022-09-28T19:44:33.252Z,85242.88
2022-09-28T19:47:11.621Z,85242.88
2022-09-28T19:49:40.696Z,85501.56
2022-09-28T19:52:16.484Z,85242.88
2022-09-28T19:54:56.957Z,85501.56
2022-09-28T19:57:31.736Z,85501.56
2022-09-28T20:00:03.273Z,85760.28
2022-09-28T20:02:34.866Z,86536.56
2022-09-28T20:05:05.799Z,86277.78
2022-09-28T20:07:34.785Z,86536.56
2022-09-28T20:10:02.283Z,86536.56
2022-09-28T20:12:29.692Z,87054.19
2022-09-28T20:14:58.199Z,87054.19
2022-09-28T20:17:25.650Z,87054.19
2022-09-28T20:19:53.147Z,87313.03
2022-09-28T20:22:21.278Z,87313.03
2022-09-28T20:24:48.966Z,87054.19
2022-09-28T20:27:16.246Z,87054.19
2022-09-28T20:29:43.807Z,87054.19
2022-09-28T20:32:12.240Z,87054.19
2022-09-28T20:34:39.734Z,87054.19
2022-09-28T20:37:07.299Z,86536.56
2022-09-28T20:39:34.589Z,86019.03
2022-09-28T20:42:02.967Z,86277.78
2022-09-28T20:44:31.619Z,86536.56
2022-09-28T20:46:59.422Z,86536.56
2022-09-28T20:49:28.153Z,87313.03
2022-09-28T20:51:55.541Z,87571.88
2022-09-28T20:54:23.036Z,87830.75
2022-09-28T20:56:50.606Z,87571.88
2022-09-28T20:59:22.858Z,87830.75
2022-09-28T21:01:51.091Z,87830.75
2022-09-28T21:04:19.974Z,87830.75
2022-09-28T21:06:47.356Z,87571.88
2022-09-28T21:09:15.057Z,87571.88
2022-09-28T21:11:43.045Z,87830.75
2022-09-28T21:14:15.163Z,87830.75
2022-09-28T21:16:42.596Z,87830.75
2022-09-28T21:19:09.977Z,87313.03
2022-09-28T21:21:37.367Z,87313.03
2022-09-28T21:24:05.091Z,87054.19
2022-09-28T21:26:32.966Z,87313.03
2022-09-28T21:29:05.356Z,87571.88
2022-09-28T21:31:38.944Z,87571.88
2022-09-28T21:34:07.424Z,87571.88
2022-09-28T21:36:35.122Z,87571.88
2022-09-28T21:39:04.964Z,87313.03
2022-09-28T21:41:34.386Z,87313.03
2022-09-28T21:44:02.199Z,87054.19
2022-09-28T21:46:34.212Z,86795.38
2022-09-28T21:49:04.024Z,86795.38
2022-09-28T21:51:31.588Z,87054.19
2022-09-28T21:53:58.915Z,87054.19
2022-09-28T21:56:28.865Z,86795.38
2022-09-28T21:58:56.464Z,86795.38
2022-09-28T22:01:26.097Z,86795.38
2022-09-28T22:03:55.960Z,86536.56
2022-09-28T22:06:27.971Z,86536.56
2022-09-28T22:08:58.131Z,86277.78
2022-09-28T22:11:27.978Z,86277.78
2022-09-28T22:13:59.266Z,86277.78
2022-09-28T22:16:31.076Z,86277.78
2022-09-28T22:18:59.660Z,86019.03
2022-09-28T22:21:30.309Z,86019.03
2022-09-28T22:24:00.842Z,85760.28
2022-09-28T22:26:29.969Z,85760.28
2022-09-28T22:28:59.940Z,85501.56
2022-09-28T22:31:30.518Z,85242.88
2022-09-28T22:33:58.685Z,85242.88
2022-09-28T22:36:27.603Z,84984.19
2022-09-28T22:38:56.160Z,84984.19
2022-09-28T22:41:27.294Z,84725.53
2022-09-28T22:43:55.159Z,84725.53
2022-09-28T22:46:25.717Z,84466.88
2022-09-28T22:48:58.983Z,84208.25
2022-09-28T22:51:31.073Z,84208.25
2022-09-28T22:53:58.993Z,84208.25
2022-09-28T22:56:26.720Z,84208.25
2022-09-28T22:58:54.774Z,84208.25
2022-09-28T23:01:24.673Z,84208.25
2022-09-28T23:03:53.330Z,84208.25
2022-09-28T23:06:22.792Z,84208.25
2022-09-28T23:08:51.352Z,83949.66
2022-09-28T23:11:20.215Z,83691.06
2022-09-28T23:13:51.795Z,83691.06
2022-09-28T23:16:20.180Z,83691.06
2022-09-28T23:18:49.257Z,83432.50
2022-09-28T23:21:19.566Z,83432.50
2022-09-28T23:23:52.437Z,83432.50
2022-09-28T23:26:23.317Z,83432.50
2022-09-28T23:28:51.938Z,83173.97
2022-09-28T23:31:28.595Z,82656.94
2022-09-28T23:34:04.986Z,82656.94
2022-09-28T23:36:34.554Z,82398.44
2022-09-28T23:39:02.643Z,82398.44
2022-09-28T23:41:30.587Z,82398.44
2022-09-28T23:43:58.094Z,82398.44
2022-09-28T23:46:25.573Z,82398.44
2022-09-28T23:48:53.104Z,82139.97
2022-09-28T23:51:20.795Z,82139.97
2022-09-28T23:53:48.157Z,82398.44
2022-09-28T23:56:15.782Z,82398.44
2022-09-28T23:58:43.145Z,82139.97
